Time;durP1;ratioP1;P1;durP2;ratioP2;P2;SDS_P1;SDS_P2;PMS_P1;PMS_P2;Temp;Humidity;BMP_temperature;BMP_pressure;BME280_temperature;BME280_humidity;BME280_pressure;Samples;Min_cycle;Max_cycle;Signal;HPM_P1;HPM_P2
2023/04/15 00:01:46;;;;;;;3.50;2.80;;;;;;;18.27;49.70;99546.14;104302;1264;62435;-67
2023/04/15 00:04:15;;;;;;;2.90;2.60;;;;;;;18.29;49.78;99550.83;104646;1257;60555;-67
2023/04/15 00:06:52;;;;;;;3.90;2.60;;;;;;;18.31;49.70;99555.45;104379;1254;73898;-68
2023/04/15 00:09:20;;;;;;;3.60;2.50;;;;;;;18.26;49.51;99554.39;104308;1257;69510;-67
2023/04/15 00:11:49;;;;;;;3.00;2.60;;;;;;;18.21;49.31;99550.91;104389;1259;72651;-68
2023/04/15 00:14:20;;;;;;;3.60;2.40;;;;;;;18.20;49.53;99554.88;104429;1253;61748;-68
2023/04/15 00:16:54;;;;;;;2.60;2.40;;;;;;;18.26;49.46;99553.54;104424;1254;60605;-67
2023/04/15 00:19:23;;;;;;;4.00;2.20;;;;;;;18.32;49.28;99554.35;104405;1257;72976;-67
2023/04/15 00:21:52;;;;;;;3.10;2.40;;;;;;;18.27;49.40;99558.91;104445;1254;70342;-68
2023/04/15 00:24:20;;;;;;;3.00;2.60;;;;;;;18.24;49.41;99556.02;104427;1256;71957;-68
2023/04/15 00:26:49;;;;;;;4.10;2.90;;;;;;;18.25;49.51;99547.73;104301;1269;61800;-67
2023/04/15 00:29:19;;;;;;;2.30;2.10;;;;;;;18.20;49.43;99545.30;104283;1258;60480;-67
2023/04/15 00:31:48;;;;;;;2.80;2.40;;;;;;;18.14;49.49;99538.30;104442;1272;74081;-66
2023/04/15 00:34:16;;;;;;;4.60;2.70;;;;;;;18.02;49.82;99536.85;104270;1264;70707;-68
2023/04/15 00:36:46;;;;;;;2.90;2.70;;;;;;;17.99;49.89;99535.39;104623;1254;73135;-66
2023/04/15 00:39:15;;;;;;;3.00;2.50;;;;;;;17.94;49.91;99538.59;104478;1254;61032;-67
2023/04/15 00:41:44;;;;;;;2.70;2.50;;;;;;;17.94;50.06;99542.86;104367;1254;60556;-66
2023/04/15 00:44:14;;;;;;;4.80;2.90;;;;;;;17.87;50.31;99546.00;104456;1264;75280;-66
2023/04/15 00:46:43;;;;;;;6.00;2.60;;;;;;;17.73;50.55;99546.09;104408;1254;70321;-66
2023/04/15 00:49:12;;;;;;;4.10;3.10;;;;;;;17.70;50.77;99550.23;104267;1259;71955;-66
2023/04/15 00:51:42;;;;;;;2.90;2.60;;;;;;;17.74;50.90;99550.46;104477;1256;62861;-66
2023/04/15 00:54:11;;;;;;;2.80;2.60;;;;;;;17.76;50.70;99555.65;104427;1254;60438;-65
2023/04/15 00:56:41;;;;;;;3.10;2.80;;;;;;;17.74;50.82;99559.89;104591;1254;74082;-66
2023/04/15 00:59:10;;;;;;;3.20;3.00;;;;;;;17.78;50.68;99558.36;104213;1260;68921;-66
2023/04/15 01:01:39;;;;;;;3.00;2.70;;;;;;;17.82;50.48;99555.52;104310;1253;71577;-66
2023/04/15 01:04:10;;;;;;;2.80;2.60;;;;;;;17.79;50.24;99553.83;104266;1260;61082;-66
2023/04/15 01:06:39;;;;;;;3.10;2.90;;;;;;;17.77;50.32;99553.80;104338;1260;60538;-67
2023/04/15 01:09:07;;;;;;;2.50;2.30;;;;;;;17.77;50.34;99559.33;104303;1260;73811;-68
2023/04/15 01:11:40;;;;;;;5.80;2.40;;;;;;;17.75;50.26;99558.02;104365;1272;69177;-67
2023/04/15 01:14:10;;;;;;;5.30;2.90;;;;;;;17.73;50.08;99556.52;104383;1256;73774;-68
2023/04/15 01:16:38;;;;;;;2.80;2.60;;;;;;;17.73;49.85;99554.05;104541;1254;62074;-67
2023/04/15 01:19:07;;;;;;;3.00;2.80;;;;;;;17.76;49.64;99565.39;104407;1253;60594;-68
2023/04/15 01:21:39;;;;;;;2.80;2.60;;;;;;;17.66;49.66;99572.85;104397;1255;75107;-68
2023/04/15 01:24:09;;;;;;;2.80;2.60;;;;;;;17.62;49.63;99576.00;104464;1257;70615;-67
2023/04/15 01:26:41;;;;;;;3.30;2.60;;;;;;;17.63;49.47;99579.12;104483;1254;72239;-67
2023/04/15 01:29:14;;;;;;;2.90;2.70;;;;;;;17.64;49.38;99580.99;104790;1259;63034;-67
2023/04/15 01:31:52;;;;;;;2.60;2.40;;;;;;;17.66;49.33;99587.23;104767;1256;60488;-68
2023/04/15 01:34:26;;;;;;;3.10;2.60;;;;;;;17.66;49.08;99591.64;104331;1253;73180;-68
2023/04/15 01:36:55;;;;;;;2.70;2.50;;;;;;;17.65;49.13;99589.23;104506;1259;69150;-67
2023/04/15 01:39:24;;;;;;;3.00;2.50;;;;;;;17.63;49.16;99589.71;104322;1267;71648;-66
2023/04/15 01:41:57;;;;;;;3.20;2.60;;;;;;;17.63;49.24;99594.71;104269;1266;61755;-67
2023/04/15 01:44:26;;;;;;;2.70;2.50;;;;;;;17.63;49.17;99592.95;104434;1260;60869;-67
2023/04/15 01:46:54;;;;;;;3.20;2.90;;;;;;;17.63;49.23;99592.92;104513;1256;73429;-66
2023/04/15 01:49:24;;;;;;;2.70;2.50;;;;;;;17.57;49.20;99594.98;104434;1257;69853;-67
2023/04/15 01:51:54;;;;;;;3.40;3.10;;;;;;;17.55;49.07;99597.47;104531;1260;72385;-68
2023/04/15 01:54:23;;;;;;;3.00;2.70;;;;;;;17.50;49.14;99600.09;104606;1254;60896;-68
2023/04/15 01:56:52;;;;;;;4.00;2.80;;;;;;;17.44;49.08;99596.95;104885;1254;59830;-68
2023/04/15 01:59:21;;;;;;;2.90;2.60;;;;;;;17.43;49.20;99603.55;104337;1259;74819;-68
2023/04/15 02:01:51;;;;;;;3.50;3.00;;;;;;;17.45;49.12;99603.25;104304;1270;69066;-69
2023/04/15 02:04:20;;;;;;;3.50;3.20;;;;;;;17.51;48.98;99603.53;104449;1254;71808;-67
2023/04/15 02:06:49;;;;;;;2.90;2.70;;;;;;;17.57;48.63;99607.23;104273;1260;62683;-68
2023/04/15 02:09:19;;;;;;;3.10;2.90;;;;;;;17.57;48.61;99612.88;104614;1254;60572;-67
2023/04/15 02:11:52;;;;;;;3.40;3.10;;;;;;;17.53;48.57;99611.55;104263;1264;74297;-68
2023/04/15 02:14:21;;;;;;;3.30;3.00;;;;;;;17.56;48.60;99604.46;104442;1266;68862;-68
2023/04/15 02:16:52;;;;;;;3.40;2.70;;;;;;;17.57;48.31;99603.61;104375;1257;72401;-68
2023/04/15 02:19:21;;;;;;;3.60;3.20;;;;;;;17.46;48.64;99608.52;104459;1253;64472;-68
2023/04/15 02:21:49;;;;;;;3.00;2.80;;;;;;;17.40;48.81;99608.73;104502;1263;60563;-72
2023/04/15 02:24:18;;;;;;;3.00;2.80;;;;;;;17.43;48.81;99609.11;104299;1256;73965;-67
2023/04/15 02:26:51;;;;;;;4.20;3.00;;;;;;;17.46;48.48;99610.14;104331;1257;69650;-67
2023/04/15 02:29:24;;;;;;;3.40;3.10;;;;;;;17.47;48.54;99612.11;104386;1254;72409;-69
2023/04/15 02:31:53;;;;;;;3.80;3.20;;;;;;;17.50;48.62;99616.20;104472;1257;61706;-68
2023/04/15 02:34:26;;;;;;;3.30;3.10;;;;;;;17.46;48.43;99616.11;104362;1253;60757;-68
2023/04/15 02:36:57;;;;;;;3.30;3.00;;;;;;;17.44;48.64;99620.33;104336;1253;73312;-68
2023/04/15 02:39:26;;;;;;;3.60;3.30;;;;;;;17.38;48.53;99625.38;104375;1254;69464;-67
2023/04/15 02:41:57;;;;;;;6.10;3.30;;;;;;;17.30;48.93;99632.34;104326;1252;72165;-68
2023/04/15 02:44:26;;;;;;;5.30;2.90;;;;;;;17.30;48.70;99636.94;108319;1253;63273;-70
2023/04/15 02:46:58;;;;;;;5.20;3.70;;;;;;;17.26;48.84;99633.83;108170;1252;59767;-69
2023/04/15 02:49:28;;;;;;;3.60;3.40;;;;;;;17.27;48.89;99630.44;108240;1253;73594;-69
2023/04/15 02:51:58;;;;;;;3.50;3.20;;;;;;;17.26;49.08;99625.21;107015;1256;68577;-69
2023/04/15 02:54:27;;;;;;;4.00;3.70;;;;;;;17.17;49.08;99627.20;104431;1257;72203;-69
2023/04/15 02:56:56;;;;;;;4.10;3.70;;;;;;;17.13;49.32;99628.20;104397;1253;61310;-67
2023/04/15 02:59:25;;;;;;;3.90;3.50;;;;;;;17.15;49.19;99628.92;104474;1257;60670;-68
2023/04/15 03:01:55;;;;;;;3.70;3.40;;;;;;;17.15;49.10;99625.94;104386;1253;74251;-69
2023/04/15 03:04:24;;;;;;;5.00;3.70;;;;;;;17.14;48.94;99627.77;104436;1273;70311;-69
2023/04/15 03:06:52;;;;;;;4.30;3.90;;;;;;;17.14;49.10;99623.73;104362;1260;71996;-69
2023/04/15 03:09:21;;;;;;;5.50;3.90;;;;;;;17.17;49.03;99622.46;104315;1264;61986;-68
2023/04/15 03:11:52;;;;;;;3.70;3.40;;;;;;;17.17;48.80;99625.84;104417;1269;60603;-68
2023/04/15 03:14:26;;;;;;;4.20;3.50;;;;;;;17.18;48.87;99625.56;104421;1254;74061;-68
2023/04/15 03:16:55;;;;;;;4.30;3.90;;;;;;;17.16;48.79;99627.27;104425;1257;69101;-70
2023/04/15 03:19:24;;;;;;;4.70;4.30;;;;;;;17.16;48.79;99625.34;104341;1256;72393;-67
2023/04/15 03:21:56;;;;;;;4.00;3.70;;;;;;;17.14;48.83;99629.02;104405;1266;62059;-67
2023/04/15 03:24:25;;;;;;;4.10;3.80;;;;;;;17.09;48.94;99627.25;104478;1260;59856;-69
2023/04/15 03:26:56;;;;;;;4.90;4.10;;;;;;;17.06;48.92;99626.05;104470;1254;73075;-68
2023/04/15 03:29:25;;;;;;;4.10;3.80;;;;;;;17.04;48.88;99621.40;104459;1256;69043;-67
2023/04/15 03:32:00;;;;;;;4.90;4.50;;;;;;;17.00;49.02;99624.86;104451;1254;72472;-67
2023/04/15 03:34:31;;;;;;;4.30;3.90;;;;;;;16.87;49.38;99630.75;104288;1260;61419;-67
2023/04/15 03:36:59;;;;;;;4.80;4.10;;;;;;;16.81;49.50;99635.37;104476;1254;60461;-68
2023/04/15 03:39:28;;;;;;;4.10;3.80;;;;;;;16.94;49.31;99635.70;105810;1253;73016;-68
2023/04/15 03:41:58;;;;;;;4.90;4.10;;;;;;;16.99;49.24;99633.63;104474;1254;69152;-67
2023/04/15 03:44:31;;;;;;;4.40;4.00;;;;;;;17.01;49.15;99634.70;104503;1253;72796;-68
2023/04/15 03:47:00;;;;;;;5.40;3.80;;;;;;;17.02;49.16;99624.88;104321;1265;61789;-67
2023/04/15 03:49:28;;;;;;;4.60;4.20;;;;;;;17.05;49.08;99623.47;104390;1254;60441;-67
2023/04/15 03:51:58;;;;;;;4.80;4.40;;;;;;;17.10;49.08;99626.83;104467;1253;73158;-67
2023/04/15 03:54:26;;;;;;;3.90;3.60;;;;;;;17.09;49.09;99629.70;104261;1256;68887;-67
2023/04/15 03:56:56;;;;;;;4.60;4.20;;;;;;;17.10;49.01;99633.92;104404;1253;72584;-67
2023/04/15 03:59:25;;;;;;;4.50;4.10;;;;;;;17.04;49.04;99636.11;104267;1260;60594;-67
2023/04/15 04:01:53;;;;;;;3.80;3.40;;;;;;;17.02;49.15;99640.14;104374;1257;61738;-67
2023/04/15 04:04:22;;;;;;;4.60;4.20;;;;;;;17.04;48.96;99642.27;104296;1264;74659;-67
2023/04/15 04:06:53;;;;;;;4.40;3.50;;;;;;;17.10;48.90;99647.52;104427;1256;69663;-67
2023/04/15 04:09:21;;;;;;;3.80;3.50;;;;;;;17.11;48.90;99649.42;104396;1254;72757;-67
2023/04/15 04:11:50;;;;;;;4.40;3.80;;;;;;;17.07;49.00;99649.02;104337;1256;60559;-67
2023/04/15 04:14:20;;;;;;;4.10;3.70;;;;;;;17.04;49.07;99650.58;104298;1269;59849;-67
2023/04/15 04:16:49;;;;;;;3.80;3.50;;;;;;;17.06;49.22;99649.59;104338;1254;73698;-69
2023/04/15 04:19:19;;;;;;;3.90;3.60;;;;;;;17.07;49.11;99650.05;104351;1257;69815;-67
2023/04/15 04:21:51;;;;;;;3.90;3.60;;;;;;;17.12;49.06;99653.60;104339;1257;72767;-68
2023/04/15 04:24:20;;;;;;;4.40;4.00;;;;;;;17.13;49.02;99655.48;104241;1272;61131;-67
2023/04/15 04:26:48;;;;;;;3.90;3.50;;;;;;;17.13;49.04;99653.36;104443;1269;59915;-66
2023/04/15 04:29:19;;;;;;;3.60;3.30;;;;;;;17.13;49.03;99653.20;104424;1253;72933;-67
2023/04/15 04:31:49;;;;;;;3.30;3.00;;;;;;;17.14;49.00;99660.34;104362;1269;70284;-67
2023/04/15 04:34:17;;;;;;;3.90;3.60;;;;;;;17.19;48.96;99659.30;104584;1252;72239;-67
2023/04/15 04:36:45;;;;;;;3.90;3.60;;;;;;;17.26;48.81;99656.70;104271;1264;60537;-67
2023/04/15 04:39:16;;;;;;;3.60;3.30;;;;;;;17.29;48.67;99648.14;104438;1253;61190;-69
2023/04/15 04:41:45;;;;;;;4.00;3.70;;;;;;;17.28;48.73;99645.02;104381;1256;74041;-67
2023/04/15 04:44:14;;;;;;;3.60;3.30;;;;;;;17.29;48.65;99641.96;104620;1254;69544;-67
2023/04/15 04:46:43;;;;;;;3.80;3.50;;;;;;;17.34;48.57;99647.67;104276;1270;74789;-68
2023/04/15 04:49:11;;;;;;;4.20;3.90;;;;;;;17.32;48.70;99647.96;104369;1264;61683;-68
2023/04/15 04:51:41;;;;;;;4.10;3.70;;;;;;;17.25;49.05;99650.56;104324;1254;60543;-67
2023/04/15 04:54:11;;;;;;;3.70;3.30;;;;;;;17.34;48.84;99653.45;104641;1252;73905;-67
2023/04/15 04:56:39;;;;;;;4.20;3.30;;;;;;;17.38;48.70;99651.76;104258;1257;70077;-68
2023/04/15 04:59:11;;;;;;;4.40;4.00;;;;;;;17.32;48.75;99652.71;104336;1256;72545;-67
2023/04/15 05:01:41;;;;;;;4.30;4.00;;;;;;;17.24;48.96;99653.63;104206;1273;60812;-67
2023/04/15 05:04:10;;;;;;;4.30;4.00;;;;;;;17.21;49.13;99650.52;104370;1254;60575;-66
2023/04/15 05:06:45;;;;;;;3.90;3.60;;;;;;;17.25;48.97;99650.95;104294;1254;73694;-66
2023/04/15 05:09:15;;;;;;;4.30;3.90;;;;;;;17.23;48.94;99648.78;104580;1257;69456;-67
2023/04/15 05:11:43;;;;;;;4.10;3.70;;;;;;;17.27;49.00;99649.52;104253;1270;72705;-67
2023/04/15 05:14:12;;;;;;;3.70;3.40;;;;;;;17.29;49.16;99652.36;104285;1254;62546;-66
2023/04/15 05:16:55;;;;;;;5.00;4.10;;;;;;;17.33;48.96;99658.90;104187;1258;60568;-66
2023/04/15 05:19:24;;;;;;;4.40;4.00;;;;;;;17.31;48.95;99660.42;104298;1257;73924;-67
2023/04/15 05:23:29;;;;;;;4.30;4.00;;;;;;;16.36;55.02;99670.73;101218;1294;601596;-66
2023/04/15 05:26:01;;;;;;;4.70;4.30;;;;;;;17.62;49.20;99669.20;103452;1267;60671;-66
2023/04/15 05:28:30;;;;;;;4.70;4.20;;;;;;;17.65;48.81;99671.31;103501;1284;60503;-65
2023/04/15 05:30:58;;;;;;;5.00;4.50;;;;;;;17.55;48.69;99675.04;103523;1272;71418;-66
2023/04/15 05:33:28;;;;;;;4.80;4.20;;;;;;;17.50;48.60;99675.02;103610;1267;69876;-69
2023/04/15 05:35:58;;;;;;;5.20;4.80;;;;;;;17.46;48.68;99672.66;103477;1271;270426;-69
2023/04/15 05:38:26;;;;;;;4.90;4.50;;;;;;;17.40;48.89;99673.94;103782;1268;62458;-69
2023/04/15 05:40:54;;;;;;;4.50;4.10;;;;;;;17.32;48.88;99677.36;103813;1266;59658;-67
2023/04/15 05:43:23;;;;;;;5.90;4.80;;;;;;;17.38;48.75;99674.13;103953;1265;72047;-67
2023/04/15 05:45:54;;;;;;;5.00;4.50;;;;;;;17.38;48.68;99672.73;103619;1263;68522;-67
2023/04/15 05:48:23;;;;;;;4.20;3.90;;;;;;;17.35;48.59;99677.38;103695;1274;72672;-66
2023/04/15 05:50:51;;;;;;;4.40;4.00;;;;;;;17.27;48.61;99678.91;103555;1270;61248;-66
2023/04/15 05:53:20;;;;;;;3.80;3.50;;;;;;;17.26;48.82;99674.95;103973;1266;59821;-63
2023/04/15 05:55:48;;;;;;;3.60;3.30;;;;;;;17.27;48.81;99677.54;104287;1266;72172;-64
2023/04/15 05:58:17;;;;;;;5.60;3.70;;;;;;;17.27;48.72;99677.55;103801;1272;69230;-63
2023/04/15 06:00:46;;;;;;;4.30;4.00;;;;;;;17.29;48.58;99680.58;103654;1265;72892;-64
2023/04/15 06:03:15;;;;;;;5.70;3.50;;;;;;;17.31;48.69;99679.88;103722;1287;60143;-63
2023/04/15 06:05:44;;;;;;;5.20;4.30;;;;;;;17.30;48.73;99684.40;103852;1270;60468;-68
2023/04/15 06:08:13;;;;;;;4.00;3.70;;;;;;;17.27;48.77;99686.89;103969;1266;73287;-67
2023/04/15 06:10:41;;;;;;;4.30;3.90;;;;;;;17.31;48.84;99686.06;103672;1281;69790;-70
2023/04/15 06:13:11;;;;;;;4.20;3.80;;;;;;;17.33;48.77;99689.67;103782;1269;71914;-70
2023/04/15 06:15:41;;;;;;;3.90;3.60;;;;;;;17.30;48.70;99691.30;103996;1273;60511;-69
2023/04/15 06:18:10;;;;;;;3.90;3.60;;;;;;;17.28;48.57;99690.95;104223;1275;59767;-69
2023/04/15 06:20:39;;;;;;;4.10;3.70;;;;;;;17.27;48.64;99686.73;103968;1258;73964;-69
2023/04/15 06:23:07;;;;;;;4.10;3.70;;;;;;;17.24;48.69;99687.66;104050;1260;69682;-66
2023/04/15 06:25:35;;;;;;;3.60;3.40;;;;;;;17.23;48.63;99689.47;104244;1262;72750;-65
2023/04/15 06:28:04;;;;;;;5.00;3.60;;;;;;;17.22;48.60;99689.02;104011;1259;61189;-63
2023/04/15 06:30:32;;;;;;;3.80;3.50;;;;;;;17.26;48.64;99694.61;103911;1276;60404;-63
2023/04/15 06:33:04;;;;;;;3.30;3.00;;;;;;;17.42;48.67;99695.48;103919;1264;73462;-64
2023/04/15 06:35:32;;;;;;;4.30;3.90;;;;;;;17.45;48.63;99699.80;104001;1263;68661;-64
2023/04/15 06:38:01;;;;;;;6.30;3.20;;;;;;;17.39;48.48;99697.58;103985;1264;72895;-68
2023/04/15 06:40:30;;;;;;;8.40;3.60;;;;;;;17.37;48.50;99693.52;104011;1260;60601;-68
2023/04/15 06:42:58;;;;;;;5.00;4.50;;;;;;;17.30;48.51;99702.29;103987;1273;60364;-65
2023/04/15 06:45:31;;;;;;;3.90;3.50;;;;;;;17.20;48.84;99704.77;104233;1258;72288;-68
2023/04/15 06:47:59;;;;;;;4.00;3.70;;;;;;;17.23;48.78;99702.79;104145;1258;69275;-68
2023/04/15 06:50:28;;;;;;;3.70;3.40;;;;;;;17.19;48.78;99701.14;104329;1262;72251;-68
2023/04/15 06:53:01;;;;;;;4.40;3.10;;;;;;;17.20;48.96;99697.13;106094;1257;61611;-68
2023/04/15 06:55:32;;;;;;;3.80;3.40;;;;;;;17.26;48.99;99696.00;104129;1271;60596;-66
2023/04/15 06:58:01;;;;;;;3.50;3.20;;;;;;;17.37;48.80;99697.60;104229;1260;72706;-67
2023/04/15 07:00:32;;;;;;;3.90;3.60;;;;;;;17.40;48.81;99698.27;104413;1257;68992;-66
2023/04/15 07:03:02;;;;;;;3.30;3.00;;;;;;;17.40;48.52;99702.32;104183;1257;71897;-65
2023/04/15 07:05:31;;;;;;;4.50;3.60;;;;;;;17.41;48.53;99702.96;104147;1257;60378;-67
2023/04/15 07:08:05;;;;;;;3.40;3.10;;;;;;;17.44;48.24;99701.36;104042;1263;59635;-69
2023/04/15 07:10:34;;;;;;;3.30;3.00;;;;;;;17.44;48.44;99700.25;104154;1259;72767;-65
2023/04/15 07:13:03;;;;;;;3.40;3.20;;;;;;;17.44;48.35;99701.32;104017;1257;68936;-67
2023/04/15 07:15:31;;;;;;;3.20;2.90;;;;;;;17.43;47.98;99697.13;104058;1275;72359;-67
2023/04/15 07:18:02;;;;;;;3.10;2.70;;;;;;;17.46;48.02;99701.89;104068;1257;61075;-66
2023/04/15 07:20:31;;;;;;;3.50;3.10;;;;;;;17.42;47.92;99701.13;103983;1263;59827;-68
2023/04/15 07:23:00;;;;;;;3.60;3.30;;;;;;;17.36;48.10;99701.69;104022;1261;73591;-66
2023/04/15 07:25:32;;;;;;;3.20;3.00;;;;;;;17.33;48.08;99707.80;104031;1270;68932;-63
2023/04/15 07:28:01;;;;;;;3.60;3.30;;;;;;;17.33;48.08;99704.20;104010;1262;71874;-63
2023/04/15 07:30:29;;;;;;;4.00;3.00;;;;;;;17.33;47.91;99705.98;103997;1259;61330;-64
2023/04/15 07:33:00;;;;;;;3.30;3.00;;;;;;;17.39;47.78;99710.73;103964;1262;60380;-62
2023/04/15 07:35:30;;;;;;;3.90;2.40;;;;;;;17.34;47.71;99711.77;103909;1265;72527;-66
2023/04/15 07:37:58;;;;;;;4.20;3.10;;;;;;;17.39;47.87;99714.27;104095;1261;69117;-64
2023/04/15 07:40:27;;;;;;;3.40;3.10;;;;;;;17.37;47.74;99719.91;104019;1259;72672;-63
2023/04/15 07:42:57;;;;;;;3.40;3.10;;;;;;;17.34;47.88;99723.48;103999;1268;60914;-66
2023/04/15 07:45:26;;;;;;;4.30;3.00;;;;;;;17.29;48.04;99717.80;103983;1274;59635;-64
2023/04/15 07:47:55;;;;;;;3.70;2.90;;;;;;;17.20;48.26;99718.56;104065;1266;72996;-64
2023/04/15 07:50:27;;;;;;;3.10;2.90;;;;;;;17.15;48.57;99715.94;104078;1260;69916;-67
2023/04/15 07:52:57;;;;;;;3.60;2.70;;;;;;;17.17;48.74;99713.99;104120;1261;72882;-65
2023/04/15 07:55:26;;;;;;;2.90;2.60;;;;;;;17.23;48.53;99713.27;104034;1265;60811;-64
2023/04/15 07:57:56;;;;;;;3.00;2.80;;;;;;;17.25;48.61;99720.69;104050;1268;60365;-64
2023/04/15 08:00:25;;;;;;;2.80;2.60;;;;;;;17.31;48.63;99719.08;104031;1263;73481;-64
2023/04/15 08:02:56;;;;;;;3.30;2.70;;;;;;;17.42;48.22;99719.71;104267;1257;69912;-68
2023/04/15 08:05:24;;;;;;;3.60;2.80;;;;;;;17.40;48.12;99726.21;104503;1256;72798;-64
2023/04/15 08:07:55;;;;;;;3.10;2.80;;;;;;;17.37;48.23;99723.66;104134;1269;61507;-62
2023/04/15 08:10:23;;;;;;;3.00;2.80;;;;;;;17.35;48.33;99735.60;104388;1259;60179;-65
2023/04/15 08:12:53;;;;;;;4.50;2.70;;;;;;;17.34;48.43;99731.05;104089;1260;73020;-65
2023/04/15 08:15:22;;;;;;;5.00;2.80;;;;;;;17.33;48.51;99729.89;104118;1268;69813;-64
2023/04/15 08:17:52;;;;;;;3.00;2.80;;;;;;;17.30;48.52;99729.61;103939;1274;71950;-65
2023/04/15 08:20:21;;;;;;;3.70;3.40;;;;;;;17.29;48.51;99730.70;104044;1258;60902;-66
2023/04/15 08:22:50;;;;;;;3.10;2.80;;;;;;;17.25;48.47;99735.46;104133;1276;60510;-66
2023/04/15 08:25:20;;;;;;;3.40;3.10;;;;;;;17.21;48.43;99733.59;104144;1259;73172;-63
2023/04/15 08:27:54;;;;;;;3.10;2.80;;;;;;;17.20;48.28;99730.66;104043;1266;70203;-64
2023/04/15 08:30:23;;;;;;;2.60;2.40;;;;;;;17.19;48.47;99732.26;103944;1262;72828;-63
2023/04/15 08:32:51;;;;;;;2.70;2.50;;;;;;;17.17;48.19;99732.58;104063;1265;61297;-67
2023/04/15 08:35:24;;;;;;;3.10;2.90;;;;;;;17.18;48.14;99728.31;104335;1260;60177;-66
2023/04/15 08:37:53;;;;;;;4.00;2.90;;;;;;;17.20;48.00;99724.80;104164;1276;73321;-67
2023/04/15 08:40:22;;;;;;;2.80;2.50;;;;;;;17.16;48.10;99723.09;104072;1261;69477;-66
2023/04/15 08:42:51;;;;;;;3.20;2.90;;;;;;;17.12;48.06;99729.91;104045;1265;72563;-69
2023/04/15 08:45:22;;;;;;;3.00;2.80;;;;;;;17.14;48.03;99726.27;103976;1274;61144;-66
2023/04/15 08:47:55;;;;;;;3.00;2.40;;;;;;;17.24;47.99;99729.46;104714;1259;59754;-67
2023/04/15 08:50:24;;;;;;;2.90;2.70;;;;;;;17.23;47.77;99727.73;103937;1277;72545;-67
2023/04/15 08:52:55;;;;;;;5.40;2.70;;;;;;;17.23;47.84;99729.02;104104;1257;69564;-65
2023/04/15 08:55:25;;;;;;;3.10;2.80;;;;;;;17.27;47.84;99731.05;107695;1258;73783;-68
2023/04/15 08:57:56;;;;;;;5.30;3.00;;;;;;;17.29;47.87;99730.16;105618;1259;61073;-66
2023/04/15 09:00:25;;;;;;;3.00;2.80;;;;;;;17.29;47.75;99727.85;104151;1264;59768;-67
2023/04/15 09:02:58;;;;;;;3.50;2.80;;;;;;;17.29;47.78;99725.92;104159;1260;71974;-65
2023/04/15 09:05:26;;;;;;;6.00;3.10;;;;;;;17.28;47.49;99727.63;104188;1259;69813;-67
2023/04/15 09:07:55;;;;;;;3.10;2.80;;;;;;;17.23;47.53;99732.17;103985;1275;73015;-67
2023/04/15 09:10:23;;;;;;;2.80;2.60;;;;;;;17.27;47.71;99735.77;103977;1259;61559;-66
2023/04/15 09:12:52;;;;;;;2.90;2.60;;;;;;;17.31;47.50;99738.76;103960;1263;60349;-70
2023/04/15 09:15:21;;;;;;;4.90;2.80;;;;;;;17.31;47.44;99738.19;104052;1268;73087;-68
2023/04/15 09:17:50;;;;;;;3.40;3.10;;;;;;;17.31;47.38;99738.00;104102;1257;69178;-67
2023/04/15 09:20:19;;;;;;;3.10;2.80;;;;;;;17.24;47.44;99739.40;104269;1258;72162;-66
2023/04/15 09:22:48;;;;;;;3.50;2.90;;;;;;;17.25;47.36;99743.00;103962;1262;60167;-66
2023/04/15 09:25:26;;;;;;;4.10;3.00;;;;;;;17.29;47.48;99748.23;104043;1262;62237;-68
2023/04/15 09:27:57;;;;;;;3.00;2.70;;;;;;;17.40;47.20;99748.42;104025;1259;73193;-68
2023/04/15 09:30:26;;;;;;;3.00;2.60;;;;;;;17.48;47.06;99754.53;104025;1257;69220;-66
2023/04/15 09:33:00;;;;;;;4.00;3.10;;;;;;;17.50;46.85;99756.77;103963;1259;71536;-68
2023/04/15 09:35:30;;;;;;;4.00;3.10;;;;;;;17.42;46.79;99759.39;103866;1277;61663;-67
2023/04/15 09:38:04;;;;;;;2.50;2.30;;;;;;;17.40;46.83;99757.61;104026;1270;59981;-68
2023/04/15 09:40:37;;;;;;;2.70;2.50;;;;;;;17.39;46.94;99755.17;104112;1263;73297;-68
2023/04/15 09:43:07;;;;;;;3.60;2.80;;;;;;;17.38;46.82;99758.08;104272;1260;69898;-68
2023/04/15 09:45:35;;;;;;;3.00;2.70;;;;;;;17.30;46.94;99754.70;104016;1275;71827;-71
2023/04/15 09:48:16;;;;;;;4.70;2.60;;;;;;;17.30;46.78;99747.29;104110;1257;61896;-67
2023/04/15 09:50:45;;;;;;;3.20;2.90;;;;;;;17.31;46.94;99739.96;104048;1257;60610;-68
2023/04/15 09:53:19;;;;;;;4.10;3.30;;;;;;;17.31;47.11;99738.55;104108;1257;73062;-68
2023/04/15 09:55:56;;;;;;;3.30;3.00;;;;;;;17.31;46.81;99742.80;104230;1259;70336;-70
2023/04/15 09:58:30;;;;;;;3.40;3.10;;;;;;;17.32;47.03;99742.39;104129;1257;72565;-68
2023/04/15 10:00:59;;;;;;;5.00;2.50;;;;;;;17.34;46.87;99742.41;103995;1257;60717;-67
2023/04/15 10:03:29;;;;;;;4.20;2.90;;;;;;;17.35;46.87;99744.29;104470;1262;60556;-68
2023/04/15 10:05:59;;;;;;;3.10;2.80;;;;;;;17.32;46.69;99748.91;104117;1263;75013;-69
2023/04/15 10:08:31;;;;;;;3.30;3.00;;;;;;;17.38;46.76;99755.61;104257;1259;68763;-66
2023/04/15 10:11:03;;;;;;;3.50;2.50;;;;;;;17.43;46.75;99753.14;103923;1262;71922;-66
2023/04/15 10:13:33;;;;;;;5.10;2.90;;;;;;;17.40;46.75;99751.04;104096;1274;60670;-67
2023/04/15 10:16:05;;;;;;;3.40;3.10;;;;;;;17.40;46.78;99756.04;103959;1266;60566;-67
2023/04/15 10:18:35;;;;;;;4.20;2.90;;;;;;;17.43;46.50;99761.11;103960;1260;72579;-67
2023/04/15 10:21:04;;;;;;;5.80;3.30;;;;;;;17.43;46.60;99762.36;104003;1257;69752;-66
2023/04/15 10:23:33;;;;;;;3.30;3.00;;;;;;;17.37;46.54;99763.30;103924;1263;72809;-66
2023/04/15 10:26:03;;;;;;;3.20;2.90;;;;;;;17.34;46.47;99765.30;103963;1268;61043;-67
2023/04/15 10:28:31;;;;;;;3.20;2.90;;;;;;;17.32;46.62;99763.61;104068;1261;60776;-67
2023/04/15 10:31:00;;;;;;;5.20;3.00;;;;;;;17.25;46.48;99768.69;103953;1280;74039;-67
2023/04/15 10:33:28;;;;;;;3.40;3.10;;;;;;;17.25;46.53;99767.48;103995;1263;69192;-68
2023/04/15 10:35:57;;;;;;;3.60;3.20;;;;;;;17.28;46.49;99770.27;104238;1257;72260;-65
2023/04/15 10:38:36;;;;;;;3.10;2.80;;;;;;;17.27;46.49;99777.09;104016;1266;60480;-69
2023/04/15 10:41:22;;;;;;;3.60;2.60;;;;;;;17.24;46.53;99772.68;104540;1258;60657;-67
2023/04/15 10:44:01;;;;;;;3.60;3.10;;;;;;;17.18;46.65;99768.15;104058;1269;73110;-67
2023/04/15 10:46:41;;;;;;;2.60;2.40;;;;;;;17.15;46.80;99768.67;104175;1264;69682;-67
2023/04/15 10:49:11;;;;;;;2.80;2.60;;;;;;;17.25;46.74;99769.23;103976;1259;72227;-66
2023/04/15 10:51:41;;;;;;;4.00;2.70;;;;;;;17.25;46.64;99768.36;104182;1259;60554;-65
2023/04/15 10:54:15;;;;;;;3.40;3.10;;;;;;;17.26;46.58;99769.52;104085;1274;60573;-65
2023/04/15 10:56:43;;;;;;;3.30;2.90;;;;;;;17.28;46.59;99767.80;106118;1257;73049;-69
2023/04/15 10:59:12;;;;;;;3.00;2.80;;;;;;;17.32;46.77;99769.81;107623;1257;68893;-65
2023/04/15 11:01:55;;;;;;;2.90;2.60;;;;;;;17.36;46.73;99773.30;107392;1257;72595;-63
2023/04/15 11:04:59;;;;;;;3.10;2.80;;;;;;;17.39;46.61;99772.90;107600;1257;60783;-64
2023/04/15 11:07:45;;;;;;;2.60;2.40;;;;;;;17.43;46.69;99778.80;105469;1261;60440;-64
2023/04/15 11:10:17;;;;;;;3.00;2.80;;;;;;;17.43;46.86;99775.83;104091;1259;73396;-68
2023/04/15 11:13:12;;;;;;;3.10;2.80;;;;;;;17.41;46.42;99767.45;104104;1274;69186;-67
2023/04/15 11:15:41;;;;;;;2.90;2.70;;;;;;;17.38;46.63;99763.38;103907;1260;71796;-68
2023/04/15 11:18:16;;;;;;;2.80;2.60;;;;;;;17.39;46.41;99765.80;104075;1259;60564;-69
2023/04/15 11:20:50;;;;;;;2.60;2.40;;;;;;;17.42;46.17;99766.15;103997;1262;60565;-69
2023/04/15 11:23:32;;;;;;;2.80;2.60;;;;;;;17.42;46.35;99767.55;103909;1262;73889;-68
2023/04/15 11:26:04;;;;;;;2.60;2.40;;;;;;;17.43;46.10;99771.20;103932;1265;70085;-66
2023/04/15 11:28:33;;;;;;;3.60;2.60;;;;;;;17.47;46.27;99763.63;104014;1257;72280;-71
2023/04/15 11:31:10;;;;;;;2.90;2.60;;;;;;;17.39;46.30;99761.91;104377;1257;62521;-68
2023/04/15 11:33:52;;;;;;;3.00;2.50;;;;;;;17.35;46.20;99760.39;104059;1262;60574;-66
2023/04/15 11:36:26;;;;;;;4.00;2.80;;;;;;;17.36;46.23;99759.79;104119;1261;73933;-67
2023/04/15 11:38:56;;;;;;;2.80;2.60;;;;;;;17.31;46.17;99766.86;104023;1268;69574;-69
2023/04/15 11:41:25;;;;;;;2.90;2.70;;;;;;;17.31;46.12;99774.52;104190;1259;72363;-66